Livingston, Montana
Current Conditions -  °F | °C
As of 7:53 PM on Wednesday 26 Nov 2014 (Local Time) from KLVM Reporting Station
Broken Clouds Broken Clouds  
Wind Chill: 36°   Ceiling: 12000
Heat Index: 44°   Visibility: 10mi
Dew Point: 30°   Wind: 17mph
Humidity: 58%   Direction: 270°W
Pressure: 30.07"   Gusts: 30mph
Location:  45.66°N, 110.56°W
Report Text: KLVM 270253Z AUTO 27015G26KT 10SM SCT085 BKN120 07/M01 A3007 RMK AO2 PK WND 27027/0212 SLP207 T00671011 56011
Loading
Personal Weather Stations






























Interactive Weather Map New forecast layout! Learn more

10-Day Weather Forecast

Advertisements
Track Severe Weather on mobile